createdAt,value
2019-05-09T00:01:20.008Z,4.47
2019-05-09T00:03:50.561Z,4.00
2019-05-09T00:06:21.082Z,3.73
2019-05-09T00:08:50.527Z,3.97
2019-05-09T00:11:20.074Z,3.30
2019-05-09T00:13:49.277Z,2.77
2019-05-09T00:16:18.744Z,2.10
2019-05-09T00:18:48.721Z,1.87
2019-05-09T00:21:30.638Z,2.03
2019-05-09T00:24:00.095Z,1.80
2019-05-09T00:26:29.237Z,1.60
2019-05-09T00:29:03.873Z,1.57
2019-05-09T00:31:43.863Z,1.47
2019-05-09T00:34:19.755Z,1.53
2019-05-09T00:36:49.202Z,1.40
2019-05-09T00:39:18.403Z,1.57
2019-05-09T00:41:47.572Z,1.43
2019-05-09T00:44:23.510Z,1.40
2019-05-09T00:46:58.884Z,1.57
2019-05-09T00:49:29.123Z,1.63
2019-05-09T00:51:59.329Z,1.50
2019-05-09T00:54:28.541Z,1.70
2019-05-09T00:56:57.986Z,1.70
2019-05-09T00:59:28.453Z,1.33
2019-05-09T01:01:59.054Z,1.60
2019-05-09T01:04:28.234Z,1.50
2019-05-09T01:06:57.951Z,1.50
2019-05-09T01:09:27.440Z,1.30
2019-05-09T01:11:57.167Z,1.40
2019-05-09T01:14:26.903Z,1.30
2019-05-09T01:16:56.344Z,1.40
2019-05-09T01:19:25.655Z,1.23
2019-05-09T01:21:59.474Z,1.33
2019-05-09T01:24:28.995Z,1.33
2019-05-09T01:26:58.183Z,1.20
2019-05-09T01:29:27.623Z,1.53
2019-05-09T01:32:03.524Z,1.40
2019-05-09T01:34:35.250Z,1.30
2019-05-09T01:37:05.539Z,1.27
2019-05-09T01:39:36.490Z,1.40
2019-05-09T01:42:06.476Z,1.40
2019-05-09T01:44:35.661Z,1.50
2019-05-09T01:47:05.877Z,1.53
2019-05-09T01:49:35.069Z,1.33
2019-05-09T01:52:04.317Z,1.40
2019-05-09T01:54:36.063Z,1.40
2019-05-09T01:57:05.343Z,1.30
2019-05-09T01:59:34.919Z,1.20
2019-05-09T02:02:09.016Z,1.37
2019-05-09T02:04:36.021Z,2.10
2019-05-09T02:07:05.242Z,1.60
2019-05-09T02:09:34.613Z,1.40
2019-05-09T02:12:06.047Z,1.40
2019-05-09T02:14:43.743Z,1.47
2019-05-09T02:17:24.279Z,1.40
2019-05-09T02:19:54.519Z,1.60
2019-05-09T02:22:38.008Z,2.00
2019-05-09T02:25:09.632Z,1.60
2019-05-09T02:27:39.146Z,1.53
2019-05-09T02:30:10.024Z,1.70
2019-05-09T02:32:40.025Z,1.90
2019-05-09T02:35:09.705Z,1.67
2019-05-09T02:37:39.390Z,1.80
2019-05-09T02:40:09.994Z,1.60
2019-05-09T02:42:40.054Z,2.10
2019-05-09T02:45:09.970Z,1.90
2019-05-09T02:47:39.511Z,1.80
2019-05-09T02:50:09.926Z,2.20
2019-05-09T02:52:40.219Z,1.93
2019-05-09T02:55:10.860Z,2.23
2019-05-09T02:57:40.468Z,2.27
2019-05-09T03:00:29.117Z,2.40
2019-05-09T03:03:15.555Z,2.50
2019-05-09T03:05:44.747Z,2.87
2019-05-09T03:08:13.914Z,4.03
2019-05-09T03:10:43.887Z,4.43
2019-05-09T03:13:18.777Z,4.87
2019-05-09T03:15:49.460Z,5.53
2019-05-09T03:18:20.279Z,6.20
2019-05-09T03:21:11.624Z,6.70
2019-05-09T03:23:40.807Z,6.77
2019-05-09T03:26:14.038Z,7.57
2019-05-09T03:28:50.158Z,7.67
2019-05-09T03:31:20.686Z,7.07
2019-05-09T03:33:50.491Z,7.43
2019-05-09T03:36:19.703Z,7.77
2019-05-09T03:38:50.461Z,7.73
2019-05-09T03:41:19.664Z,7.43
2019-05-09T03:43:49.636Z,7.80
2019-05-09T03:46:27.992Z,7.30
2019-05-09T03:48:58.368Z,7.00
2019-05-09T03:51:29.143Z,7.90
2019-05-09T03:53:59.193Z,7.90
2019-05-09T03:56:34.643Z,7.93
2019-05-09T03:59:03.836Z,7.53
2019-05-09T04:01:33.640Z,7.70
2019-05-09T04:04:02.833Z,8.00
2019-05-09T04:06:32.259Z,7.80
2019-05-09T04:09:02.170Z,7.93
2019-05-09T04:11:31.728Z,7.40
2019-05-09T04:14:08.301Z,7.20
2019-05-09T04:16:38.159Z,7.03
2019-05-09T04:19:09.437Z,7.20
2019-05-09T04:21:39.244Z,7.30
2019-05-09T04:24:10.869Z,7.17
2019-05-09T04:27:12.349Z,7.27
2019-05-09T04:29:43.495Z,8.23
2019-05-09T04:32:14.234Z,7.17
2019-05-09T04:34:46.787Z,7.90
2019-05-09T04:37:18.053Z,7.67
2019-05-09T04:39:53.979Z,7.43
2019-05-09T04:42:22.014Z,6.87
2019-05-09T04:45:03.554Z,6.70
2019-05-09T04:47:33.866Z,7.13
2019-05-09T04:50:02.473Z,6.77
2019-05-09T04:52:31.956Z,6.10
2019-05-09T04:55:01.565Z,6.20
2019-05-09T04:57:30.714Z,5.67
2019-05-09T05:00:00.053Z,6.10
2019-05-09T05:02:38.301Z,6.50
2019-05-09T05:05:08.137Z,5.87
2019-05-09T05:07:38.004Z,5.83
2019-05-09T05:10:08.960Z,5.50
2019-05-09T05:12:38.831Z,5.90
2019-05-09T05:15:09.293Z,5.37
2019-05-09T05:17:39.856Z,5.80
2019-05-09T05:20:13.026Z,5.40
2019-05-09T05:22:47.922Z,5.67
2019-05-09T05:25:18.212Z,5.73
2019-05-09T05:27:48.189Z,5.60
2019-05-09T05:30:19.179Z,5.13
2019-05-09T05:33:04.701Z,5.40
2019-05-09T05:35:37.750Z,4.87
2019-05-09T05:38:08.545Z,5.13
2019-05-09T05:40:44.696Z,4.67
2019-05-09T05:43:09.782Z,4.33
2019-05-09T05:45:47.972Z,4.33
2019-05-09T05:48:21.262Z,5.23
2019-05-09T05:50:50.435Z,4.53
2019-05-09T05:53:20.430Z,4.20
2019-05-09T05:55:52.786Z,4.67
2019-05-09T05:58:21.554Z,5.10
2019-05-09T06:00:50.762Z,5.57
2019-05-09T06:03:19.937Z,6.50
2019-05-09T06:05:51.763Z,6.70
2019-05-09T06:08:21.115Z,7.10
2019-05-09T06:10:50.328Z,7.37
2019-05-09T06:13:19.498Z,6.77
2019-05-09T06:15:48.952Z,6.60
2019-05-09T06:18:18.501Z,6.60
2019-05-09T06:20:48.680Z,6.70
2019-05-09T06:23:17.941Z,6.63
2019-05-09T06:25:48.447Z,5.50
2019-05-09T06:28:18.571Z,5.77
2019-05-09T06:30:48.338Z,5.70
2019-05-09T06:33:18.295Z,5.80
2019-05-09T06:35:48.209Z,5.67
2019-05-09T06:38:18.920Z,5.13
2019-05-09T06:40:48.981Z,5.00
2019-05-09T06:43:21.483Z,5.10
2019-05-09T06:46:12.119Z,5.03
2019-05-09T06:48:41.584Z,4.50
2019-05-09T06:51:10.783Z,4.70
2019-05-09T06:53:39.940Z,5.00
2019-05-09T06:56:09.681Z,4.33
2019-05-09T06:58:38.895Z,4.30
2019-05-09T07:01:28.642Z,4.17
2019-05-09T07:04:03.439Z,4.40
2019-05-09T07:06:39.221Z,4.40
2019-05-09T07:09:33.995Z,3.90
2019-05-09T07:12:03.461Z,4.50
2019-05-09T07:14:40.901Z,4.43
2019-05-09T07:17:08.664Z,4.40
2019-05-09T07:19:38.437Z,3.73
2019-05-09T07:22:30.057Z,4.20
2019-05-09T07:25:11.170Z,4.30
2019-05-09T07:27:39.322Z,4.40
2019-05-09T07:30:19.036Z,4.50
2019-05-09T07:32:58.161Z,4.33
2019-05-09T07:35:29.170Z,4.20
2019-05-09T07:37:59.734Z,3.67
2019-05-09T07:40:30.797Z,3.50
2019-05-09T07:43:00.865Z,3.30
2019-05-09T07:45:30.066Z,4.30
2019-05-09T07:47:59.592Z,3.30
2019-05-09T07:50:28.763Z,3.37
2019-05-09T07:52:58.670Z,3.10
2019-05-09T07:55:27.819Z,3.10
2019-05-09T07:57:58.997Z,3.40
2019-05-09T08:00:38.443Z,3.00
2019-05-09T08:03:12.034Z,3.10
2019-05-09T08:05:39.384Z,2.73
2019-05-09T08:08:14.963Z,2.70
2019-05-09T08:10:44.123Z,2.77
2019-05-09T08:13:13.721Z,2.80
2019-05-09T08:15:44.030Z,2.87
2019-05-09T08:18:17.343Z,2.60
2019-05-09T08:20:47.887Z,2.60
2019-05-09T08:23:18.138Z,2.33
2019-05-09T08:25:48.479Z,2.30
2019-05-09T08:28:20.186Z,2.30
2019-05-09T08:30:50.911Z,2.37
2019-05-09T08:33:22.117Z,2.30
2019-05-09T08:35:52.868Z,2.20
2019-05-09T08:38:23.681Z,2.70
2019-05-09T08:41:12.689Z,2.00
2019-05-09T08:43:42.299Z,2.30
2019-05-09T08:46:13.203Z,2.33
2019-05-09T08:48:42.717Z,2.50
2019-05-09T08:51:36.868Z,2.60
2019-05-09T08:54:03.128Z,2.13
2019-05-09T08:56:32.616Z,2.50
2019-05-09T08:59:02.496Z,2.30
2019-05-09T09:01:49.814Z,2.60
2019-05-09T09:04:04.165Z,2.20
2019-05-09T09:06:33.611Z,2.03
2019-05-09T09:09:07.900Z,2.20
2019-05-09T09:11:38.522Z,1.90
2019-05-09T09:14:08.129Z,1.90
2019-05-09T09:16:41.707Z,2.00
2019-05-09T09:19:09.785Z,2.33
2019-05-09T09:21:39.217Z,2.00
2019-05-09T09:24:08.948Z,1.70
2019-05-09T09:26:39.886Z,1.73
2019-05-09T09:29:09.100Z,1.30
2019-05-09T09:31:41.181Z,1.40
2019-05-09T09:34:10.663Z,1.30
2019-05-09T09:36:39.832Z,1.17
2019-05-09T09:39:09.054Z,1.00
2019-05-09T09:41:39.557Z,0.90
2019-05-09T09:44:09.110Z,0.90
2019-05-09T09:46:38.831Z,0.80
2019-05-09T09:49:08.319Z,0.87
2019-05-09T09:51:38.427Z,0.90
2019-05-09T09:54:08.790Z,1.17
2019-05-09T09:56:38.757Z,1.30
2019-05-09T09:59:18.984Z,0.93
2019-05-09T10:01:50.497Z,1.10
2019-05-09T10:04:24.197Z,0.83
2019-05-09T10:06:53.109Z,1.40
2019-05-09T10:09:24.441Z,1.40
2019-05-09T10:11:56.972Z,0.87
2019-05-09T10:14:31.448Z,1.50
2019-05-09T10:17:32.452Z,1.10
2019-05-09T10:20:09.959Z,0.87
2019-05-09T10:22:46.604Z,1.07
2019-05-09T10:25:10.672Z,0.90
2019-05-09T10:27:40.681Z,1.00
2019-05-09T10:30:10.301Z,1.00
2019-05-09T10:32:40.023Z,1.30
2019-05-09T10:35:09.324Z,1.20
2019-05-09T10:37:39.457Z,1.00
2019-05-09T10:40:10.346Z,1.33
2019-05-09T10:42:48.552Z,1.23
2019-05-09T10:45:40.855Z,1.57
2019-05-09T10:48:08.503Z,1.50
2019-05-09T10:50:44.217Z,1.63
2019-05-09T10:53:09.835Z,1.70
2019-05-09T10:55:41.327Z,1.47
2019-05-09T10:58:11.133Z,1.63
2019-05-09T11:00:40.359Z,1.67
2019-05-09T11:03:11.078Z,1.30
2019-05-09T11:05:40.367Z,1.30
2019-05-09T11:08:09.873Z,1.67
2019-05-09T11:10:40.005Z,1.47
2019-05-09T11:13:11.955Z,1.50
2019-05-09T11:15:41.232Z,1.37
2019-05-09T11:18:10.732Z,1.50
2019-05-09T11:20:40.163Z,1.43
2019-05-09T11:23:11.381Z,1.47
2019-05-09T11:25:40.539Z,1.77
2019-05-09T11:28:14.739Z,1.50
2019-05-09T11:30:41.957Z,1.50
2019-05-09T11:33:12.419Z,0.80
2019-05-09T11:35:42.979Z,1.10
2019-05-09T11:38:12.226Z,1.10
2019-05-09T11:40:41.850Z,1.27
2019-05-09T11:43:11.618Z,1.10
2019-05-09T11:45:40.839Z,1.10
2019-05-09T11:48:13.099Z,0.70
2019-05-09T11:50:42.584Z,0.90
2019-05-09T11:53:12.047Z,1.00
2019-05-09T11:55:43.487Z,0.80
2019-05-09T11:58:19.525Z,1.00
2019-05-09T12:00:48.814Z,1.00
2019-05-09T12:03:18.924Z,0.80
2019-05-09T12:05:48.438Z,0.90
2019-05-09T12:08:18.228Z,1.17
2019-05-09T12:10:47.431Z,1.20
2019-05-09T12:13:18.573Z,1.00
2019-05-09T12:15:49.000Z,0.90
2019-05-09T12:18:18.477Z,0.90
2019-05-09T12:20:48.382Z,0.87
2019-05-09T12:23:19.881Z,1.00
2019-05-09T12:25:49.042Z,0.97
2019-05-09T12:28:19.024Z,1.03
2019-05-09T12:30:49.058Z,1.20
2019-05-09T12:33:19.413Z,1.17
2019-05-09T12:35:50.165Z,1.40
2019-05-09T12:38:20.086Z,1.70
2019-05-09T12:40:49.296Z,1.53
2019-05-09T12:43:18.702Z,1.10
2019-05-09T12:45:51.085Z,1.30
2019-05-09T12:48:21.061Z,1.20
2019-05-09T12:50:50.949Z,1.10
2019-05-09T12:53:20.582Z,1.10
2019-05-09T12:55:52.050Z,0.90
2019-05-09T12:58:30.214Z,0.90
2019-05-09T13:01:00.362Z,1.30
2019-05-09T13:03:31.090Z,0.70
2019-05-09T13:06:02.474Z,0.70
2019-05-09T13:08:33.245Z,0.80
2019-05-09T13:11:04.140Z,0.80
2019-05-09T13:13:34.960Z,0.83
2019-05-09T13:16:38.954Z,0.80
2019-05-09T13:19:06.775Z,0.90
2019-05-09T13:21:38.917Z,1.00
2019-05-09T13:24:10.044Z,0.90
2019-05-09T13:26:39.515Z,0.90
2019-05-09T13:29:10.188Z,0.90
2019-05-09T13:31:39.832Z,0.87
2019-05-09T13:34:09.061Z,0.73
2019-05-09T13:36:38.612Z,0.97
2019-05-09T13:39:10.366Z,1.23
2019-05-09T13:41:40.334Z,0.90
2019-05-09T13:44:13.554Z,1.90
2019-05-09T13:46:42.071Z,6.70
2019-05-09T13:49:15.822Z,1.67
2019-05-09T13:51:55.183Z,2.73
2019-05-09T13:54:18.522Z,3.17
2019-05-09T13:56:54.999Z,1.20
2019-05-09T13:59:19.722Z,1.23
2019-05-09T14:01:48.913Z,0.90
2019-05-09T14:04:18.115Z,0.90
2019-05-09T14:06:48.716Z,2.10
2019-05-09T14:09:20.148Z,1.30
2019-05-09T14:11:49.943Z,1.10
2019-05-09T14:14:20.259Z,0.93
2019-05-09T14:16:49.450Z,1.20
2019-05-09T14:19:34.326Z,1.07
2019-05-09T14:21:51.246Z,0.80
2019-05-09T14:24:22.018Z,0.90
2019-05-09T14:26:54.368Z,0.87
2019-05-09T14:29:23.625Z,0.70
2019-05-09T14:31:52.840Z,0.70
2019-05-09T14:34:22.032Z,1.07
2019-05-09T14:36:51.467Z,0.90
2019-05-09T14:39:22.492Z,0.77
2019-05-09T14:41:52.284Z,0.83
2019-05-09T14:44:22.244Z,0.70
2019-05-09T14:46:51.638Z,0.80
2019-05-09T14:49:22.002Z,1.00
2019-05-09T14:51:51.220Z,0.70
2019-05-09T14:54:20.987Z,0.60
2019-05-09T14:56:53.088Z,0.80
2019-05-09T14:59:22.570Z,0.60
2019-05-09T15:01:51.783Z,0.57
2019-05-09T15:04:21.256Z,0.97
2019-05-09T15:06:50.433Z,1.03
2019-05-09T15:09:19.971Z,0.70
2019-05-09T15:11:49.404Z,0.70
2019-05-09T15:14:19.828Z,1.10
2019-05-09T15:16:49.305Z,1.43
2019-05-09T15:19:18.550Z,0.80
2019-05-09T15:21:49.137Z,0.70
2019-05-09T15:24:19.139Z,0.70
2019-05-09T15:26:48.935Z,0.67
2019-05-09T15:29:23.180Z,0.80
2019-05-09T15:31:55.137Z,0.60
2019-05-09T15:34:24.114Z,0.67
2019-05-09T15:36:53.603Z,0.37
2019-05-09T15:39:22.769Z,0.50
2019-05-09T15:41:52.560Z,0.70
2019-05-09T15:44:22.022Z,0.50
2019-05-09T15:47:03.846Z,0.80
2019-05-09T15:49:33.824Z,0.30
2019-05-09T15:52:03.222Z,0.63
2019-05-09T15:54:32.229Z,0.40
2019-05-09T15:57:02.753Z,0.33
2019-05-09T15:59:31.934Z,0.50
2019-05-09T16:02:01.955Z,0.57
2019-05-09T16:04:31.460Z,0.50
2019-05-09T16:07:00.946Z,0.40
2019-05-09T16:09:30.220Z,0.33
2019-05-09T16:11:59.734Z,0.57
2019-05-09T16:14:29.209Z,3.47
2019-05-09T16:16:58.404Z,1.00
2019-05-09T16:19:27.624Z,0.57
2019-05-09T16:21:58.832Z,0.40
2019-05-09T16:24:28.357Z,0.40
2019-05-09T16:26:57.888Z,0.77
2019-05-09T16:29:29.279Z,0.40
2019-05-09T16:31:59.049Z,0.43
2019-05-09T16:34:28.488Z,0.50
2019-05-09T16:36:58.432Z,0.53
2019-05-09T16:39:28.049Z,1.83
2019-05-09T16:41:59.238Z,0.80
2019-05-09T16:44:29.191Z,0.80
2019-05-09T16:46:59.408Z,1.03
2019-05-09T16:49:29.419Z,0.60
2019-05-09T16:52:01.387Z,0.90
2019-05-09T16:54:34.933Z,0.50
2019-05-09T16:57:08.256Z,0.40
2019-05-09T16:59:38.827Z,0.57
2019-05-09T17:02:20.734Z,0.50
2019-05-09T17:04:39.592Z,0.50
2019-05-09T17:07:12.476Z,0.50
2019-05-09T17:09:44.929Z,0.60
2019-05-09T17:12:14.879Z,0.50
2019-05-09T17:14:44.374Z,0.50
2019-05-09T17:17:13.577Z,0.50
2019-05-09T17:19:43.107Z,3.60
2019-05-09T17:22:20.295Z,0.90
2019-05-09T17:24:52.316Z,0.90
2019-05-09T17:27:23.685Z,0.97
2019-05-09T17:29:53.641Z,1.10
2019-05-09T17:32:23.445Z,0.80
2019-05-09T17:34:52.683Z,0.73
2019-05-09T17:37:21.852Z,0.90
2019-05-09T17:39:51.303Z,0.80
2019-05-09T17:42:21.298Z,0.83
2019-05-09T17:44:50.467Z,0.70
2019-05-09T17:47:19.667Z,0.80
2019-05-09T17:49:49.654Z,0.80
2019-05-09T17:52:18.825Z,0.90
2019-05-09T17:54:48.660Z,0.77
2019-05-09T17:57:19.055Z,0.93
2019-05-09T17:59:49.098Z,0.90
2019-05-09T18:02:18.346Z,1.70
2019-05-09T18:04:48.267Z,1.50
2019-05-09T18:07:18.207Z,0.80
2019-05-09T18:09:48.546Z,1.20
2019-05-09T18:12:18.970Z,0.90
2019-05-09T18:14:49.057Z,1.30
2019-05-09T18:17:18.484Z,1.20
2019-05-09T18:19:48.976Z,1.23
2019-05-09T18:22:18.692Z,0.93
2019-05-09T18:24:48.460Z,0.73
2019-05-09T18:27:18.268Z,0.90
2019-05-09T18:29:48.655Z,24.03
2019-05-09T18:32:27.529Z,2.27
2019-05-09T18:35:08.051Z,3.10
2019-05-09T18:37:38.640Z,6.10
2019-05-09T18:40:08.380Z,5.67
2019-05-09T18:42:37.558Z,4.37
2019-05-09T18:45:07.959Z,1.40
2019-05-09T18:47:37.253Z,5.10
2019-05-09T18:50:07.822Z,1.40
2019-05-09T18:52:37.094Z,2.50
2019-05-09T18:55:06.774Z,3.63
2019-05-09T18:57:36.456Z,2.00
2019-05-09T19:00:07.298Z,1.43
2019-05-09T19:02:37.501Z,1.50
2019-05-09T19:05:07.183Z,1.40
2019-05-09T19:07:36.624Z,1.67
2019-05-09T19:10:07.919Z,2.07
2019-05-09T19:12:39.130Z,2.80
2019-05-09T19:15:10.717Z,1.70
2019-05-09T19:17:59.127Z,2.53
2019-05-09T19:20:36.618Z,2.40
2019-05-09T19:23:05.804Z,2.30
2019-05-09T19:25:36.087Z,3.03
2019-05-09T19:28:06.037Z,5.43
2019-05-09T19:30:35.723Z,4.87
2019-05-09T19:33:05.171Z,3.83
2019-05-09T19:35:34.423Z,4.07
2019-05-09T19:38:03.570Z,3.00
2019-05-09T19:40:32.803Z,3.13
2019-05-09T19:43:02.172Z,3.10
2019-05-09T19:45:31.393Z,2.97
2019-05-09T19:48:02.497Z,1.97
2019-05-09T19:50:31.779Z,3.10
2019-05-09T19:53:02.402Z,4.27
2019-05-09T19:55:32.489Z,3.10
2019-05-09T19:58:02.747Z,2.50
2019-05-09T20:00:32.001Z,1.97
2019-05-09T20:03:01.978Z,2.50
2019-05-09T20:05:31.447Z,5.13
2019-05-09T20:08:00.698Z,3.67
2019-05-09T20:10:47.701Z,2.40
2019-05-09T20:13:23.159Z,1.80
2019-05-09T20:15:52.440Z,2.87
2019-05-09T20:18:21.632Z,6.23
2019-05-09T20:20:50.890Z,4.50
2019-05-09T20:23:20.201Z,4.83
2019-05-09T20:25:55.501Z,3.40
2019-05-09T20:28:24.765Z,8.70
2019-05-09T20:30:54.228Z,13.03
2019-05-09T20:33:24.025Z,10.57
2019-05-09T20:35:53.960Z,8.23
2019-05-09T20:38:24.002Z,6.33
2019-05-09T20:40:56.270Z,5.30
2019-05-09T20:43:28.151Z,6.03
2019-05-09T20:45:58.433Z,4.93
2019-05-09T20:48:27.898Z,5.37
2019-05-09T20:50:57.287Z,5.80
2019-05-09T20:53:26.726Z,6.10
2019-05-09T20:55:56.234Z,6.53
2019-05-09T20:58:25.872Z,8.63
2019-05-09T21:00:55.268Z,6.40
2019-05-09T21:03:25.163Z,5.20
2019-05-09T21:05:54.805Z,6.57
2019-05-09T21:08:24.158Z,6.03
2019-05-09T21:10:53.510Z,6.60
2019-05-09T21:13:22.912Z,6.47
2019-05-09T21:15:52.761Z,6.43
2019-05-09T21:18:22.450Z,6.27
2019-05-09T21:20:52.055Z,4.47
2019-05-09T21:23:24.882Z,3.27
2019-05-09T21:25:56.104Z,2.60
2019-05-09T21:28:25.573Z,1.67
2019-05-09T21:30:58.373Z,1.70
2019-05-09T21:33:31.197Z,1.60
2019-05-09T21:36:03.354Z,1.40
2019-05-09T21:38:32.826Z,1.27
2019-05-09T21:41:02.251Z,1.57
2019-05-09T21:43:31.723Z,1.60
2019-05-09T21:46:06.334Z,1.30
2019-05-09T21:48:41.934Z,1.37
2019-05-09T21:51:15.330Z,1.90
2019-05-09T21:53:50.245Z,1.40
2019-05-09T21:56:28.286Z,1.50
2019-05-09T21:58:59.185Z,1.60
2019-05-09T22:01:29.135Z,1.50
2019-05-09T22:04:00.675Z,1.63
2019-05-09T22:06:29.867Z,1.70
2019-05-09T22:09:01.719Z,1.50
2019-05-09T22:11:36.504Z,1.37
2019-05-09T22:14:06.074Z,1.37
2019-05-09T22:16:35.495Z,1.83
2019-05-09T22:19:07.905Z,1.90
2019-05-09T22:21:37.087Z,1.67
2019-05-09T22:24:07.011Z,1.50
2019-05-09T22:26:40.576Z,1.40
2019-05-09T22:29:09.771Z,1.60
2019-05-09T22:31:40.105Z,1.50
2019-05-09T22:34:10.889Z,1.40
2019-05-09T22:36:40.715Z,1.30
2019-05-09T22:39:13.509Z,1.43
2019-05-09T22:41:46.276Z,1.33
2019-05-09T22:44:17.954Z,1.50
2019-05-09T22:46:50.823Z,1.67
2019-05-09T22:49:22.613Z,1.50
2019-05-09T22:51:57.953Z,1.67
2019-05-09T22:54:30.019Z,2.00
2019-05-09T22:57:00.990Z,1.43
2019-05-09T22:59:33.281Z,1.50
2019-05-09T23:02:06.921Z,1.60
2019-05-09T23:04:35.959Z,1.60
2019-05-09T23:07:07.093Z,1.83
2019-05-09T23:09:40.674Z,1.60
2019-05-09T23:12:18.472Z,1.63
2019-05-09T23:14:50.003Z,1.90
2019-05-09T23:17:22.152Z,1.70
2019-05-09T23:19:52.237Z,1.47
2019-05-09T23:22:26.642Z,1.80
2019-05-09T23:24:56.176Z,1.50
2019-05-09T23:27:27.835Z,1.57
2019-05-09T23:29:57.141Z,1.90
2019-05-09T23:32:39.853Z,1.60
2019-05-09T23:35:12.279Z,1.50
2019-05-09T23:37:42.354Z,2.00
2019-05-09T23:40:16.286Z,1.70
2019-05-09T23:42:48.416Z,1.77
2019-05-09T23:45:18.143Z,1.53
2019-05-09T23:47:52.756Z,1.83
2019-05-09T23:50:22.842Z,1.80
2019-05-09T23:52:54.529Z,1.63
2019-05-09T23:55:47.286Z,1.80
2019-05-09T23:58:36.739Z,1.80
